Time;durP1;ratioP1;P1;durP2;ratioP2;P2;SDS_P1;SDS_P2;PMS_P1;PMS_P2;Temp;Humidity;BMP_temperature;BMP_pressure;BME280_temperature;BME280_humidity;BME280_pressure;Samples;Min_cycle;Max_cycle;Signal;HPM_P1;HPM_P2
2021/03/29 00:00:01;;;;;;;12.40;4.23;;;;;;;;;;4313980;33;20186;-71
2021/03/29 00:02:27;;;;;;;8.47;3.47;;;;;;;;;;4316348;33;20534;-70
2021/03/29 00:05:29;;;;;;;11.87;4.03;;;;;;;;;;4334939;32;20214;-71
2021/03/29 00:08:15;;;;;;;8.80;4.07;;;;;;;;;;4378225;32;20138;-71
2021/03/29 00:10:58;;;;;;;;;;;;;;;;;;;;;
2021/03/29 00:14:18;;;;;;;9.23;3.63;;;;;;;;;;4377893;32;20139;-71
2021/03/29 00:17:08;;;;;;;12.40;4.30;;;;;;;;;;4356637;32;20167;-71
2021/03/29 00:19:37;;;;;;;9.10;3.73;;;;;;;;;;4378476;32;20567;-71
2021/03/29 00:22:02;;;;;;;10.80;3.87;;;;;;;;;;4377574;32;20284;-71
2021/03/29 00:24:42;;;;;;;13.18;4.30;;;;;;;;;;4377691;32;20134;-71
2021/03/29 00:27:15;;;;;;;13.33;3.90;;;;;;;;;;4377549;32;20141;-71
2021/03/29 00:29:40;;;;;;;10.37;4.03;;;;;;;;;;4377845;32;20131;-71
2021/03/29 00:32:38;;;;;;;14.90;4.60;;;;;;;;;;4386312;32;20567;-71
2021/03/29 00:35:11;;;;;;;14.17;4.80;;;;;;;;;;4392139;32;20621;-71
2021/03/29 00:37:47;;;;;;;9.77;4.20;;;;;;;;;;4393032;32;20123;-71
2021/03/29 00:40:13;;;;;;;9.70;3.93;;;;;;;;;;4392978;32;20176;-71
2021/03/29 00:45:46;;;;;;;12.23;4.13;;;;;;;;;;4376857;32;20146;-70
2021/03/29 00:48:28;;;;;;;11.97;4.23;;;;;;;;;;4376094;32;20229;-71
2021/03/29 00:51:05;;;;;;;12.83;4.60;;;;;;;;;;4376156;32;20445;-71
2021/03/29 00:56:30;;;;;;;14.07;4.47;;;;;;;;;;4330858;32;20181;-71
2021/03/29 00:58:56;;;;;;;10.47;4.30;;;;;;;;;;4362271;32;20132;-71
2021/03/29 01:01:24;;;;;;;11.33;4.27;;;;;;;;;;4361806;32;20131;-71
2021/03/29 01:04:15;;;;;;;10.13;4.60;;;;;;;;;;4371474;32;20633;-71
2021/03/29 01:06:52;;;;;;;13.73;4.57;;;;;;;;;;4377411;32;20123;-71
2021/03/29 01:12:41;;;;;;;9.80;4.57;;;;;;;;;;4375854;32;20185;-71
2021/03/29 01:15:08;;;;;;;13.60;4.30;;;;;;;;;;4375957;32;20185;-70
2021/03/29 01:20:55;;;;;;;13.17;4.87;;;;;;;;;;4359568;32;20182;-70
2021/03/29 01:23:21;;;;;;;11.35;5.10;;;;;;;;;;4373705;32;20169;-71
2021/03/29 01:25:54;;;;;;;14.67;5.07;;;;;;;;;;4376725;32;20435;-70
2021/03/29 01:28:21;;;;;;;15.80;6.10;;;;;;;;;;4376875;32;20146;-70
2021/03/29 01:30:47;;;;;;;15.60;5.53;;;;;;;;;;4371499;32;20215;-70
2021/03/29 01:33:13;;;;;;;13.07;5.00;;;;;;;;;;4361250;32;20154;-72
2021/03/29 01:35:44;;;;;;;11.87;4.70;;;;;;;;;;4361877;32;20222;-72
2021/03/29 01:38:09;;;;;;;13.70;5.07;;;;;;;;;;4362004;32;20226;-72
2021/03/29 01:40:36;;;;;;;10.85;4.37;;;;;;;;;;4362338;32;20143;-74
2021/03/29 01:43:15;;;;;;;15.18;4.90;;;;;;;;;;4376833;32;20135;-72
2021/03/29 01:45:48;;;;;;;12.70;5.03;;;;;;;;;;4376549;32;20127;-71
2021/03/29 01:48:13;;;;;;;12.27;5.05;;;;;;;;;;4376830;32;20115;-70
2021/03/29 01:50:41;;;;;;;10.65;5.30;;;;;;;;;;4376691;32;20189;-71
2021/03/29 01:53:18;;;;;;;12.53;5.20;;;;;;;;;;4376543;32;20131;-71
2021/03/29 01:55:44;;;;;;;11.63;5.07;;;;;;;;;;4376931;32;20157;-71
2021/03/29 01:58:22;;;;;;;12.00;5.00;;;;;;;;;;4376533;32;20241;-71
2021/03/29 02:04:24;;;;;;;9.70;5.30;;;;;;;;;;4376352;32;20188;-70
2021/03/29 02:06:52;;;;;;;14.23;5.62;;;;;;;;;;4375905;32;20218;-70
2021/03/29 02:09:21;;;;;;;16.00;5.63;;;;;;;;;;4375897;32;20143;-70
2021/03/29 02:11:47;;;;;;;12.13;5.53;;;;;;;;;;4375922;32;20135;-72
2021/03/29 02:14:33;;;;;;;10.45;5.43;;;;;;;;;;4362554;32;20281;-70
2021/03/29 02:17:32;;;;;;;16.30;6.00;;;;;;;;;;4375807;32;20172;-70
2021/03/29 02:23:17;;;;;;;13.25;5.72;;;;;;;;;;4314383;33;20171;-70
2021/03/29 02:25:44;;;;;;;12.77;5.72;;;;;;;;;;4315460;33;20171;-70
2021/03/29 02:28:12;;;;;;;14.13;5.20;;;;;;;;;;4359320;32;20285;-70
2021/03/29 02:30:40;;;;;;;14.20;5.47;;;;;;;;;;4375424;32;20625;-71
2021/03/29 02:33:09;;;;;;;16.40;5.70;;;;;;;;;;4362263;32;20511;-71
2021/03/29 02:35:35;;;;;;;12.70;5.37;;;;;;;;;;4374236;32;20530;-70
2021/03/29 02:38:07;;;;;;;16.87;5.80;;;;;;;;;;4375998;32;20139;-70
2021/03/29 02:40:32;;;;;;;14.43;5.73;;;;;;;;;;4362084;32;20177;-71
2021/03/29 02:43:01;;;;;;;13.90;5.40;;;;;;;;;;4375465;32;20424;-70
2021/03/29 02:45:32;;;;;;;17.08;5.72;;;;;;;;;;4375860;32;20168;-71
2021/03/29 02:48:03;;;;;;;11.60;5.03;;;;;;;;;;4374593;32;20143;-70
2021/03/29 02:50:30;;;;;;;11.77;4.50;;;;;;;;;;4375104;32;20139;-71
2021/03/29 02:52:58;;;;;;;11.27;4.20;;;;;;;;;;4376519;32;20208;-72
2021/03/29 02:55:26;;;;;;;14.20;5.10;;;;;;;;;;4375488;32;20177;-72
2021/03/29 02:57:52;;;;;;;14.32;4.60;;;;;;;;;;4375347;32;20127;-71
2021/03/29 03:00:19;;;;;;;9.60;3.87;;;;;;;;;;4375921;32;20209;-72
2021/03/29 03:02:47;;;;;;;10.67;3.93;;;;;;;;;;4375015;32;20134;-70
2021/03/29 03:05:16;;;;;;;10.83;4.20;;;;;;;;;;4375527;32;20153;-71
2021/03/29 03:07:51;;;;;;;;;;;;;;;;;;;;;
2021/03/29 03:10:17;;;;;;;9.90;4.05;;;;;;;;;;4373159;32;20167;-71
2021/03/29 03:12:44;;;;;;;12.53;4.30;;;;;;;;;;4376155;32;20161;-69
2021/03/29 03:15:11;;;;;;;13.15;4.45;;;;;;;;;;4375211;32;20139;-71
2021/03/29 03:17:37;;;;;;;11.12;3.87;;;;;;;;;;4374883;32;20139;-70
2021/03/29 03:20:15;;;;;;;12.35;4.10;;;;;;;;;;4374906;32;20134;-72
2021/03/29 03:22:50;;;;;;;11.90;3.72;;;;;;;;;;4374927;32;20127;-71
2021/03/29 03:25:26;;;;;;;11.63;4.37;;;;;;;;;;4375104;32;20180;-71
2021/03/29 03:28:02;;;;;;;12.37;4.03;;;;;;;;;;4375248;32;20528;-72
2021/03/29 03:30:30;;;;;;;13.32;3.90;;;;;;;;;;4361879;32;20170;-71
2021/03/29 03:32:55;;;;;;;11.12;4.20;;;;;;;;;;4373641;32;20162;-71
2021/03/29 03:35:22;;;;;;;11.43;4.05;;;;;;;;;;4376125;32;20177;-71
2021/03/29 03:37:57;;;;;;;10.93;4.00;;;;;;;;;;4376790;32;20555;-72
2021/03/29 03:40:22;;;;;;;11.03;4.00;;;;;;;;;;4391564;32;20141;-70
2021/03/29 03:42:51;;;;;;;9.30;3.85;;;;;;;;;;4392859;32;20492;-70
2021/03/29 03:45:19;;;;;;;12.47;3.60;;;;;;;;;;4392812;32;20176;-71
2021/03/29 03:47:45;;;;;;;13.50;4.27;;;;;;;;;;4393407;32;20210;-71
2021/03/29 03:50:11;;;;;;;10.60;3.13;;;;;;;;;;4379031;32;20186;-71
2021/03/29 03:52:40;;;;;;;9.77;3.67;;;;;;;;;;4393092;32;20157;-72
2021/03/29 03:55:16;;;;;;;11.97;3.80;;;;;;;;;;4393184;32;20134;-71
2021/03/29 03:58:12;;;;;;;;;;;;;;;;;;;;;
2021/03/29 04:01:06;;;;;;;9.30;3.70;;;;;;;;;;4393213;32;20165;-71
2021/03/29 04:03:34;;;;;;;11.20;3.63;;;;;;;;;;4393250;32;20151;-70
2021/03/29 04:05:59;;;;;;;14.43;3.87;;;;;;;;;;4392835;32;20288;-70
2021/03/29 04:08:25;;;;;;;9.63;3.57;;;;;;;;;;4378812;32;20158;-71
2021/03/29 04:11:00;;;;;;;12.20;3.90;;;;;;;;;;4392984;32;20154;-71
2021/03/29 04:13:29;;;;;;;10.45;3.47;;;;;;;;;;4392966;32;20217;-72
2021/03/29 04:15:57;;;;;;;13.15;3.83;;;;;;;;;;4392620;32;20543;-69
2021/03/29 04:18:32;;;;;;;9.97;3.40;;;;;;;;;;4390342;32;20131;-71
2021/03/29 04:21:19;;;;;;;10.68;3.35;;;;;;;;;;4377964;32;20524;-71
2021/03/29 04:23:47;;;;;;;11.88;3.55;;;;;;;;;;4377559;32;20134;-71
2021/03/29 04:26:16;;;;;;;9.07;3.30;;;;;;;;;;4377527;32;20138;-71
2021/03/29 04:28:41;;;;;;;9.53;2.93;;;;;;;;;;4366056;32;20506;-71
2021/03/29 04:31:06;;;;;;;10.80;3.30;;;;;;;;;;4392543;32;20131;-70
2021/03/29 04:33:32;;;;;;;8.13;3.70;;;;;;;;;;4392490;32;20666;-71
2021/03/29 04:35:58;;;;;;;10.93;3.53;;;;;;;;;;4378485;32;20162;-72
2021/03/29 04:38:23;;;;;;;10.45;3.65;;;;;;;;;;4393199;32;20127;-71
2021/03/29 04:40:49;;;;;;;9.40;3.15;;;;;;;;;;4378355;32;20204;-70
2021/03/29 04:43:14;;;;;;;11.80;3.37;;;;;;;;;;4392574;32;20559;-69
2021/03/29 04:45:40;;;;;;;10.02;3.03;;;;;;;;;;4391922;32;20162;-71
2021/03/29 04:48:11;;;;;;;10.32;3.05;;;;;;;;;;4392708;32;20127;-70
2021/03/29 04:50:36;;;;;;;8.52;3.28;;;;;;;;;;4392611;32;20543;-71
2021/03/29 04:53:20;;;;;;;9.45;3.33;;;;;;;;;;4391366;32;20131;-70
2021/03/29 04:55:54;;;;;;;10.85;3.28;;;;;;;;;;4392383;32;20122;-72
2021/03/29 04:58:19;;;;;;;10.80;3.40;;;;;;;;;;4386862;32;20203;-70
2021/03/29 05:00:44;;;;;;;11.83;3.40;;;;;;;;;;4377203;32;20126;-70
2021/03/29 05:03:10;;;;;;;8.68;3.47;;;;;;;;;;4377264;32;20202;-71
2021/03/29 05:06:03;;;;;;;11.60;3.78;;;;;;;;;;4385062;32;20559;-72
2021/03/29 05:08:28;;;;;;;8.50;3.10;;;;;;;;;;4390028;32;20238;-71
2021/03/29 05:10:54;;;;;;;8.80;3.50;;;;;;;;;;4378458;32;20162;-71
2021/03/29 05:13:19;;;;;;;10.10;3.47;;;;;;;;;;4392615;32;20162;-73
2021/03/29 05:15:50;;;;;;;10.23;3.70;;;;;;;;;;4392085;32;20257;-72
2021/03/29 05:18:16;;;;;;;11.17;3.33;;;;;;;;;;4391808;32;20138;-71
2021/03/29 05:20:50;;;;;;;8.77;3.47;;;;;;;;;;4391456;32;20590;-73
2021/03/29 05:23:23;;;;;;;9.17;3.37;;;;;;;;;;4378755;32;20157;-71
2021/03/29 05:25:53;;;;;;;10.47;3.70;;;;;;;;;;4391892;32;20219;-70
2021/03/29 05:28:19;;;;;;;11.93;3.53;;;;;;;;;;4391967;32;20134;-72
2021/03/29 05:30:44;;;;;;;12.90;3.37;;;;;;;;;;4391331;32;20165;-70
2021/03/29 05:33:18;;;;;;;12.27;3.47;;;;;;;;;;4377580;32;20197;-70
2021/03/29 05:35:43;;;;;;;10.70;3.50;;;;;;;;;;4391366;32;20126;-71
2021/03/29 05:38:09;;;;;;;14.77;3.63;;;;;;;;;;4390431;32;20200;-70
2021/03/29 05:40:34;;;;;;;10.87;3.50;;;;;;;;;;4391303;32;20165;-71
2021/03/29 05:43:00;;;;;;;11.90;3.97;;;;;;;;;;4389962;32;20259;-72
2021/03/29 05:45:31;;;;;;;12.50;4.17;;;;;;;;;;4390488;32;20151;-70
2021/03/29 05:48:07;;;;;;;11.07;4.10;;;;;;;;;;4391450;32;20122;-71
2021/03/29 05:50:33;;;;;;;7.80;3.60;;;;;;;;;;4390512;32;20134;-73
2021/03/29 05:53:04;;;;;;;19.77;4.43;;;;;;;;;;4391440;32;20196;-71
2021/03/29 05:55:34;;;;;;;12.70;3.77;;;;;;;;;;4390756;32;20196;-71
2021/03/29 06:01:13;;;;;;;11.32;3.67;;;;;;;;;;4390445;32;20252;-71
2021/03/29 06:03:42;;;;;;;11.83;3.70;;;;;;;;;;4331317;32;20169;-72
2021/03/29 06:06:22;;;;;;;10.97;3.50;;;;;;;;;;4390797;32;20259;-72
2021/03/29 06:08:49;;;;;;;14.87;3.63;;;;;;;;;;4391040;32;20573;-72
2021/03/29 06:11:22;;;;;;;12.30;3.50;;;;;;;;;;4390484;32;20138;-71
2021/03/29 06:14:07;;;;;;;14.60;3.87;;;;;;;;;;4390134;32;20540;-69
2021/03/29 06:16:50;;;;;;;15.43;3.93;;;;;;;;;;4390495;32;20213;-73
2021/03/29 06:19:31;;;;;;;11.18;3.87;;;;;;;;;;4376186;32;20237;-69
2021/03/29 06:22:05;;;;;;;10.77;4.43;;;;;;;;;;4377955;32;20188;-68
2021/03/29 06:24:52;;;;;;;11.87;4.03;;;;;;;;;;4390251;32;20147;-70
2021/03/29 06:27:18;;;;;;;13.50;4.50;;;;;;;;;;4390185;32;20134;-73
2021/03/29 06:29:43;;;;;;;10.03;4.60;;;;;;;;;;4385873;32;20177;-70
2021/03/29 06:32:11;;;;;;;13.23;4.57;;;;;;;;;;4376455;32;20854;-71
2021/03/29 06:34:37;;;;;;;13.10;4.33;;;;;;;;;;4381340;32;20184;-70
2021/03/29 06:37:06;;;;;;;10.77;4.77;;;;;;;;;;4388216;32;20552;-73
2021/03/29 06:39:36;;;;;;;13.70;4.37;;;;;;;;;;4385514;32;20630;-71
2021/03/29 06:42:01;;;;;;;10.20;4.10;;;;;;;;;;4385588;32;20193;-71
2021/03/29 06:44:29;;;;;;;10.17;4.17;;;;;;;;;;4389619;32;20464;-72
2021/03/29 06:47:19;;;;;;;9.40;4.37;;;;;;;;;;4384244;32;20680;-70
2021/03/29 06:49:48;;;;;;;13.43;4.30;;;;;;;;;;4361342;32;20201;-71
2021/03/29 06:52:19;;;;;;;14.17;4.73;;;;;;;;;;4389439;32;20142;-71
2021/03/29 06:54:45;;;;;;;11.63;4.47;;;;;;;;;;4375848;32;20151;-69
2021/03/29 06:57:10;;;;;;;12.23;4.05;;;;;;;;;;4376262;32;20150;-70
2021/03/29 06:59:38;;;;;;;12.67;4.13;;;;;;;;;;4389441;32;20540;-72
2021/03/29 07:02:07;;;;;;;16.37;4.43;;;;;;;;;;4376462;32;20177;-73
2021/03/29 07:04:33;;;;;;;12.37;4.00;;;;;;;;;;4389338;32;20250;-69
2021/03/29 07:06:59;;;;;;;11.03;4.20;;;;;;;;;;4375888;32;20155;-71
2021/03/29 07:09:25;;;;;;;14.17;4.30;;;;;;;;;;4389254;32;20138;-71
2021/03/29 07:11:50;;;;;;;12.00;4.47;;;;;;;;;;4389481;32;20193;-72
2021/03/29 07:14:20;;;;;;;11.30;4.25;;;;;;;;;;4389104;32;20567;-72
2021/03/29 07:16:46;;;;;;;11.82;4.18;;;;;;;;;;4389393;32;20153;-72
2021/03/29 07:19:14;;;;;;;14.70;4.32;;;;;;;;;;4389811;32;20516;-69
2021/03/29 07:21:42;;;;;;;11.23;4.00;;;;;;;;;;4388124;32;20564;-72
2021/03/29 07:24:18;;;;;;;8.77;4.18;;;;;;;;;;4388030;32;20614;-72
2021/03/29 07:26:46;;;;;;;13.13;4.70;;;;;;;;;;4386604;32;20154;-69
2021/03/29 07:29:16;;;;;;;13.38;4.82;;;;;;;;;;4378693;32;20587;-69
2021/03/29 07:31:42;;;;;;;15.40;4.45;;;;;;;;;;4389052;32;20131;-71
2021/03/29 07:34:07;;;;;;;14.18;4.55;;;;;;;;;;4374337;32;20201;-72
2021/03/29 07:36:43;;;;;;;12.60;4.20;;;;;;;;;;4361525;32;20603;-69
2021/03/29 07:39:09;;;;;;;13.18;4.43;;;;;;;;;;4373565;32;20188;-69
2021/03/29 07:41:37;;;;;;;13.90;4.63;;;;;;;;;;4389209;32;20639;-71
2021/03/29 07:44:12;;;;;;;12.63;4.53;;;;;;;;;;4376501;32;20217;-69
2021/03/29 07:46:39;;;;;;;12.75;4.05;;;;;;;;;;4389809;32;20216;-69
2021/03/29 07:49:04;;;;;;;11.98;3.95;;;;;;;;;;4376206;32;20158;-68
2021/03/29 07:51:29;;;;;;;12.43;4.25;;;;;;;;;;4376472;32;20194;-71
2021/03/29 07:54:01;;;;;;;15.25;4.05;;;;;;;;;;4389581;32;20157;-72
2021/03/29 07:56:30;;;;;;;10.25;3.75;;;;;;;;;;4375707;32;20173;-73
2021/03/29 07:58:55;;;;;;;14.38;4.10;;;;;;;;;;4389202;32;20226;-72
2021/03/29 08:01:20;;;;;;;17.48;4.53;;;;;;;;;;4389765;32;20131;-72
2021/03/29 08:03:47;;;;;;;11.52;4.32;;;;;;;;;;4375640;32;20529;-71
2021/03/29 08:06:31;;;;;;;11.10;3.78;;;;;;;;;;4389675;32;20539;-72
2021/03/29 08:08:56;;;;;;;11.88;3.70;;;;;;;;;;4389560;32;20230;-72
2021/03/29 08:11:22;;;;;;;16.95;4.00;;;;;;;;;;4390072;32;20465;-69
2021/03/29 08:13:52;;;;;;;13.60;4.30;;;;;;;;;;4389808;32;20138;-70
2021/03/29 08:16:30;;;;;;;9.25;3.70;;;;;;;;;;4389472;32;20147;-71
2021/03/29 08:19:17;;;;;;;13.68;4.20;;;;;;;;;;4390203;32;20122;-69
2021/03/29 08:21:55;;;;;;;12.75;4.45;;;;;;;;;;4377363;32;20479;-70
2021/03/29 08:24:22;;;;;;;12.98;4.05;;;;;;;;;;4377891;32;20261;-71
2021/03/29 08:26:48;;;;;;;11.18;3.55;;;;;;;;;;4378036;32;20154;-72
2021/03/29 08:29:15;;;;;;;15.90;4.45;;;;;;;;;;4378222;32;20183;-71
2021/03/29 08:32:02;;;;;;;9.77;3.60;;;;;;;;;;4377638;32;20202;-70
2021/03/29 08:34:33;;;;;;;15.15;4.00;;;;;;;;;;4378045;32;20595;-71
2021/03/29 08:37:00;;;;;;;10.57;3.28;;;;;;;;;;4388240;32;20265;-72
2021/03/29 08:39:33;;;;;;;13.85;3.85;;;;;;;;;;4363697;32;20254;-72
2021/03/29 08:41:58;;;;;;;12.77;3.92;;;;;;;;;;4376901;32;20154;-70
2021/03/29 08:44:25;;;;;;;10.55;3.83;;;;;;;;;;4380047;32;20164;-70
2021/03/29 08:46:52;;;;;;;12.65;3.83;;;;;;;;;;4391391;32;20166;-70
2021/03/29 08:49:17;;;;;;;12.52;3.75;;;;;;;;;;4392285;32;20157;-68
2021/03/29 08:51:42;;;;;;;9.50;3.42;;;;;;;;;;4391958;32;20134;-71
2021/03/29 08:54:11;;;;;;;14.90;3.90;;;;;;;;;;4377548;32;20245;-71
2021/03/29 08:56:37;;;;;;;16.65;4.03;;;;;;;;;;4377996;32;20540;-69
2021/03/29 08:59:05;;;;;;;10.95;3.90;;;;;;;;;;4391560;32;20172;-69
2021/03/29 09:01:30;;;;;;;11.23;3.95;;;;;;;;;;4391727;32;20209;-72
2021/03/29 09:03:59;;;;;;;12.18;4.05;;;;;;;;;;4377534;32;20159;-72
2021/03/29 09:06:25;;;;;;;12.00;4.35;;;;;;;;;;4391610;32;20142;-72
2021/03/29 09:08:50;;;;;;;11.85;4.60;;;;;;;;;;4391675;32;20355;-69
2021/03/29 09:11:15;;;;;;;12.13;4.25;;;;;;;;;;4392125;32;20676;-71
2021/03/29 09:13:41;;;;;;;13.32;4.37;;;;;;;;;;4391680;32;20690;-67
2021/03/29 09:16:06;;;;;;;16.00;4.95;;;;;;;;;;4377784;32;20155;-74
2021/03/29 09:18:31;;;;;;;8.88;3.80;;;;;;;;;;4391619;32;20473;-70
2021/03/29 09:20:57;;;;;;;12.23;3.97;;;;;;;;;;4378017;32;20158;-71
2021/03/29 09:23:28;;;;;;;10.73;3.72;;;;;;;;;;4391232;32;20475;-71
2021/03/29 09:25:53;;;;;;;13.00;4.03;;;;;;;;;;4377504;32;20216;-72
2021/03/29 09:28:32;;;;;;;14.52;4.32;;;;;;;;;;4390935;32;20126;-70
2021/03/29 09:30:59;;;;;;;13.48;4.20;;;;;;;;;;4390677;32;20499;-71
2021/03/29 09:33:24;;;;;;;12.77;4.40;;;;;;;;;;4383432;32;20181;-73
2021/03/29 09:35:50;;;;;;;11.75;4.05;;;;;;;;;;4382416;32;20197;-72
2021/03/29 09:38:29;;;;;;;12.48;4.28;;;;;;;;;;4390090;32;20154;-71
2021/03/29 09:40:55;;;;;;;10.55;4.35;;;;;;;;;;4377634;32;20185;-68
2021/03/29 09:43:21;;;;;;;10.27;4.10;;;;;;;;;;4390576;32;20182;-72
2021/03/29 09:45:46;;;;;;;10.65;3.62;;;;;;;;;;4390866;32;20131;-69
2021/03/29 09:48:14;;;;;;;10.20;4.03;;;;;;;;;;4394911;32;20146;-73
2021/03/29 09:50:41;;;;;;;13.05;4.45;;;;;;;;;;4406367;32;20215;-72
2021/03/29 09:53:31;;;;;;;12.35;4.25;;;;;;;;;;4392027;32;20188;-72
2021/03/29 09:55:57;;;;;;;10.32;3.90;;;;;;;;;;4406396;32;20126;-70
2021/03/29 09:58:30;;;;;;;9.27;3.65;;;;;;;;;;4406059;32;20191;-70
2021/03/29 10:00:57;;;;;;;13.82;4.57;;;;;;;;;;4406412;32;20184;-70
2021/03/29 10:03:26;;;;;;;14.52;3.92;;;;;;;;;;4406252;32;20443;-71
2021/03/29 10:05:52;;;;;;;17.95;4.82;;;;;;;;;;4405634;32;20208;-70
2021/03/29 10:08:23;;;;;;;13.62;4.30;;;;;;;;;;4405831;32;20493;-72
2021/03/29 10:10:57;;;;;;;13.20;4.55;;;;;;;;;;4406129;32;20138;-74
2021/03/29 10:13:30;;;;;;;12.43;4.28;;;;;;;;;;4391698;32;20177;-73
2021/03/29 10:15:55;;;;;;;11.45;3.80;;;;;;;;;;4406257;32;20129;-72
2021/03/29 10:18:20;;;;;;;13.85;4.30;;;;;;;;;;4392545;32;20180;-72
2021/03/29 10:20:45;;;;;;;12.57;4.53;;;;;;;;;;4405319;32;20425;-73
2021/03/29 10:23:23;;;;;;;12.68;3.70;;;;;;;;;;4406082;32;20135;-72
2021/03/29 10:26:07;;;;;;;13.40;4.07;;;;;;;;;;4405515;32;20212;-73
2021/03/29 10:28:32;;;;;;;10.68;4.37;;;;;;;;;;4390249;32;20189;-69
2021/03/29 10:30:57;;;;;;;13.55;4.82;;;;;;;;;;4403561;32;20207;-73
2021/03/29 10:33:22;;;;;;;15.13;4.30;;;;;;;;;;4405612;32;20451;-74
2021/03/29 10:35:48;;;;;;;11.18;3.97;;;;;;;;;;4406174;32;20130;-72
2021/03/29 10:38:15;;;;;;;9.48;3.95;;;;;;;;;;4405594;32;20169;-72
2021/03/29 10:40:40;;;;;;;12.55;4.05;;;;;;;;;;4406374;32;20590;-70
2021/03/29 10:43:06;;;;;;;12.18;4.57;;;;;;;;;;4405602;32;20196;-72
2021/03/29 10:45:31;;;;;;;14.35;4.40;;;;;;;;;;4390733;32;20280;-66
2021/03/29 10:47:56;;;;;;;13.85;3.75;;;;;;;;;;4405498;32;20421;-73
2021/03/29 10:50:22;;;;;;;16.70;4.43;;;;;;;;;;4405414;32;20203;-74
2021/03/29 10:52:47;;;;;;;11.93;4.10;;;;;;;;;;4405505;32;20543;-75
2021/03/29 10:55:13;;;;;;;10.18;3.42;;;;;;;;;;4391649;32;20242;-73
2021/03/29 10:57:39;;;;;;;9.57;3.55;;;;;;;;;;4405441;32;20138;-72
2021/03/29 11:00:07;;;;;;;15.75;3.70;;;;;;;;;;4405021;32;20157;-72
2021/03/29 11:02:35;;;;;;;10.10;3.22;;;;;;;;;;4391463;32;20166;-72
2021/03/29 11:05:00;;;;;;;13.07;3.50;;;;;;;;;;4405507;32;20586;-71
2021/03/29 11:07:26;;;;;;;11.12;3.50;;;;;;;;;;4405582;32;20126;-72
2021/03/29 11:09:51;;;;;;;12.00;3.78;;;;;;;;;;4391165;32;20223;-74
2021/03/29 11:12:16;;;;;;;8.82;3.58;;;;;;;;;;4405090;32;20546;-73
2021/03/29 11:14:57;;;;;;;14.18;3.42;;;;;;;;;;4404606;32;20158;-73
2021/03/29 11:17:27;;;;;;;11.15;3.78;;;;;;;;;;4405037;32;20122;-71
2021/03/29 11:19:53;;;;;;;9.90;3.92;;;;;;;;;;4391321;32;20177;-73
2021/03/29 11:22:18;;;;;;;10.63;4.00;;;;;;;;;;4405290;32;20478;-72
2021/03/29 11:24:43;;;;;;;13.25;3.80;;;;;;;;;;4405366;32;20284;-71
2021/03/29 11:27:08;;;;;;;14.35;3.70;;;;;;;;;;4404778;32;20205;-73
2021/03/29 11:29:34;;;;;;;8.75;4.10;;;;;;;;;;4391126;32;20327;-73
2021/03/29 11:32:01;;;;;;;12.20;3.80;;;;;;;;;;4405266;32;20234;-73
2021/03/29 11:34:27;;;;;;;12.98;4.05;;;;;;;;;;4391434;32;20153;-74
2021/03/29 11:36:52;;;;;;;8.07;3.40;;;;;;;;;;4391507;32;20252;-72
2021/03/29 11:39:17;;;;;;;11.18;3.20;;;;;;;;;;4391209;32;20193;-73
2021/03/29 11:41:42;;;;;;;9.18;3.20;;;;;;;;;;4404508;32;20319;-72
2021/03/29 11:44:08;;;;;;;10.30;3.00;;;;;;;;;;4404833;32;20242;-71
2021/03/29 11:46:43;;;;;;;;;;;;;;;;;;;;;
2021/03/29 11:49:09;;;;;;;12.18;2.58;;;;;;;;;;4404729;32;20176;-69
2021/03/29 11:51:38;;;;;;;7.32;2.65;;;;;;;;;;4390882;32;20166;-73
2021/03/29 11:54:04;;;;;;;9.55;2.53;;;;;;;;;;4405423;32;20138;-70
2021/03/29 11:56:30;;;;;;;6.50;2.50;;;;;;;;;;4391891;32;20161;-72
2021/03/29 11:58:55;;;;;;;12.20;2.50;;;;;;;;;;4407810;32;20185;-72
2021/03/29 12:03:57;;;;;;;9.52;2.97;;;;;;;;;;4407963;32;20563;-74
2021/03/29 12:06:30;;;;;;;8.88;3.12;;;;;;;;;;4408475;32;20535;-73
2021/03/29 12:14:32;;;;;;;7.22;2.62;;;;;;;;;;4407607;32;20565;-73
2021/03/29 12:17:01;;;;;;;7.10;2.80;;;;;;;;;;4393689;32;20582;-71
2021/03/29 12:19:27;;;;;;;6.65;2.45;;;;;;;;;;4393647;32;20162;-73
2021/03/29 12:22:07;;;;;;;;;;;;;;;;;;;;;
2021/03/29 12:24:35;;;;;;;8.02;3.00;;;;;;;;;;4407215;32;20126;-74
2021/03/29 12:27:01;;;;;;;9.52;2.92;;;;;;;;;;4407393;32;20162;-72
2021/03/29 12:29:40;;;;;;;9.15;3.10;;;;;;;;;;4407585;32;20138;-71
2021/03/29 12:32:06;;;;;;;8.73;2.95;;;;;;;;;;4393739;32;20177;-71
2021/03/29 12:34:35;;;;;;;9.77;3.67;;;;;;;;;;4407464;32;20141;-72
2021/03/29 12:37:03;;;;;;;8.27;3.30;;;;;;;;;;4407342;32;20186;-72
2021/03/29 12:39:42;;;;;;;8.57;3.40;;;;;;;;;;4393372;32;20162;-72
2021/03/29 12:42:11;;;;;;;8.30;2.97;;;;;;;;;;4407772;32;20153;-72
2021/03/29 12:44:36;;;;;;;9.15;3.47;;;;;;;;;;4407701;32;20184;-70
2021/03/29 12:47:06;;;;;;;8.95;2.97;;;;;;;;;;4407799;32;20133;-72
2021/03/29 12:49:31;;;;;;;9.90;3.33;;;;;;;;;;4393320;32;20169;-72
2021/03/29 12:51:58;;;;;;;9.18;2.60;;;;;;;;;;4407260;32;20221;-71
2021/03/29 12:54:26;;;;;;;7.10;3.22;;;;;;;;;;4406877;32;20157;-74
2021/03/29 12:56:55;;;;;;;7.80;3.03;;;;;;;;;;4392494;32;20150;-73
2021/03/29 12:59:24;;;;;;;8.85;2.75;;;;;;;;;;4376880;32;20163;-74
2021/03/29 13:01:50;;;;;;;7.28;2.92;;;;;;;;;;4377221;32;20143;-72
2021/03/29 13:06:52;;;;;;;7.40;2.90;;;;;;;;;;4377003;32;20206;-70
2021/03/29 13:12:35;;;;;;;6.62;3.20;;;;;;;;;;4344792;33;20217;-73
2021/03/29 13:15:13;;;;;;;6.87;3.00;;;;;;;;;;4344927;33;20646;-72
2021/03/29 13:17:43;;;;;;;8.00;3.28;;;;;;;;;;4364684;32;20581;-72
2021/03/29 13:20:15;;;;;;;8.93;3.00;;;;;;;;;;4362602;32;20147;-73
2021/03/29 13:22:41;;;;;;;9.43;3.40;;;;;;;;;;4376539;32;20532;-71
2021/03/29 13:25:07;;;;;;;7.47;3.40;;;;;;;;;;4376348;32;20471;-73
2021/03/29 13:27:33;;;;;;;8.35;3.22;;;;;;;;;;4362878;32;20212;-73
2021/03/29 13:29:59;;;;;;;8.25;3.30;;;;;;;;;;4362762;32;20564;-73
2021/03/29 13:32:24;;;;;;;6.68;2.80;;;;;;;;;;4376271;32;20131;-72
2021/03/29 13:34:50;;;;;;;10.00;2.92;;;;;;;;;;4376199;32;20183;-71
2021/03/29 13:37:18;;;;;;;6.75;2.85;;;;;;;;;;4362680;32;20259;-70
2021/03/29 13:39:43;;;;;;;10.68;3.10;;;;;;;;;;4362711;32;20163;-72
2021/03/29 13:42:09;;;;;;;7.90;2.85;;;;;;;;;;4376180;32;20230;-69
2021/03/29 13:44:35;;;;;;;6.90;3.25;;;;;;;;;;4376391;32;20214;-71
2021/03/29 13:47:01;;;;;;;7.57;3.22;;;;;;;;;;4362367;32;20202;-72
2021/03/29 13:49:27;;;;;;;8.73;2.87;;;;;;;;;;4376327;32;20157;-69
2021/03/29 13:51:53;;;;;;;6.95;3.08;;;;;;;;;;4376065;32;20135;-72
2021/03/29 13:54:19;;;;;;;9.95;3.53;;;;;;;;;;4362711;32;20163;-72
2021/03/29 13:56:53;;;;;;;5.47;2.60;;;;;;;;;;4362322;32;20155;-72
2021/03/29 13:59:19;;;;;;;7.68;3.00;;;;;;;;;;4376974;32;20271;-72
2021/03/29 14:01:44;;;;;;;7.25;3.00;;;;;;;;;;4376449;32;20134;-73
2021/03/29 14:04:17;;;;;;;6.03;3.10;;;;;;;;;;4362597;32;20312;-71
2021/03/29 14:06:42;;;;;;;6.85;3.20;;;;;;;;;;4376462;32;20128;-72
2021/03/29 14:09:10;;;;;;;7.05;3.00;;;;;;;;;;4376149;32;20127;-73
2021/03/29 14:11:35;;;;;;;6.53;2.67;;;;;;;;;;4375829;32;20139;-71
2021/03/29 14:14:00;;;;;;;6.78;2.70;;;;;;;;;;4376103;32;20178;-72
2021/03/29 14:16:26;;;;;;;9.15;3.15;;;;;;;;;;4375524;32;20131;-72
2021/03/29 14:18:52;;;;;;;6.50;2.67;;;;;;;;;;4375001;32;20257;-72
2021/03/29 14:21:18;;;;;;;5.50;2.80;;;;;;;;;;4381593;32;20158;-73
2021/03/29 14:23:44;;;;;;;8.27;3.17;;;;;;;;;;4390382;32;20221;-72
2021/03/29 14:26:10;;;;;;;8.35;2.65;;;;;;;;;;4390190;32;20466;-72
2021/03/29 14:28:39;;;;;;;9.45;2.87;;;;;;;;;;4389788;32;20289;-71
2021/03/29 14:31:04;;;;;;;7.18;2.97;;;;;;;;;;4390245;32;20131;-70
2021/03/29 14:33:30;;;;;;;6.60;2.83;;;;;;;;;;4390202;32;20176;-74
2021/03/29 14:38:58;;;;;;;8.05;2.83;;;;;;;;;;4390285;32;20551;-73
2021/03/29 14:41:38;;;;;;;7.00;2.70;;;;;;;;;;4389936;32;20177;-72
2021/03/29 14:44:27;;;;;;;6.93;2.60;;;;;;;;;;4389260;32;20464;-73
2021/03/29 14:46:53;;;;;;;6.60;2.53;;;;;;;;;;4376061;32;20201;-70
2021/03/29 14:49:18;;;;;;;6.65;2.95;;;;;;;;;;4384691;32;20611;-72
2021/03/29 14:51:44;;;;;;;5.10;2.62;;;;;;;;;;4389785;32;20202;-74
2021/03/29 14:54:09;;;;;;;7.25;2.55;;;;;;;;;;4390078;32;20517;-72
2021/03/29 14:56:34;;;;;;;7.93;2.75;;;;;;;;;;4389663;32;20209;-71
2021/03/29 14:59:05;;;;;;;7.45;2.50;;;;;;;;;;4390403;32;20538;-72
2021/03/29 15:01:31;;;;;;;5.00;2.37;;;;;;;;;;4389127;32;20209;-73
2021/03/29 15:03:57;;;;;;;6.40;2.60;;;;;;;;;;4389325;32;20146;-72
2021/03/29 15:07:07;;;;;;;5.70;2.45;;;;;;;;;;4390013;32;20135;-71
2021/03/29 15:09:10;;;;;;;6.78;2.75;;;;;;;;;;4371139;32;20268;-72
2021/03/29 15:11:36;;;;;;;5.22;2.75;;;;;;;;;;4375304;32;20560;-70
2021/03/29 15:14:01;;;;;;;6.87;2.92;;;;;;;;;;4375413;32;20194;-70
2021/03/29 15:16:27;;;;;;;6.05;3.08;;;;;;;;;;4361628;32;20257;-72
2021/03/29 15:18:52;;;;;;;5.93;2.80;;;;;;;;;;4374639;32;20288;-73
2021/03/29 15:21:17;;;;;;;7.75;3.05;;;;;;;;;;4374685;32;20165;-72
2021/03/29 15:23:43;;;;;;;8.68;2.67;;;;;;;;;;4374141;32;20151;-72
2021/03/29 15:26:08;;;;;;;7.25;2.60;;;;;;;;;;4374406;32;20135;-74
2021/03/29 15:28:37;;;;;;;4.80;2.75;;;;;;;;;;4370967;32;20614;-72
2021/03/29 15:31:02;;;;;;;5.37;2.50;;;;;;;;;;4387651;32;20170;-72